sensor_id;sensor_type;location;lat;lon;timestamp;temperature;humidity
1524;DHT22;755;53.658;10.118;2023-05-10T00:08:24;13.50;99.90
1524;DHT22;755;53.658;10.118;2023-05-10T00:18:26;13.30;99.90
1524;DHT22;755;53.658;10.118;2023-05-10T00:28:30;13.30;99.90
1524;DHT22;755;53.658;10.118;2023-05-10T00:38:32;13.30;99.90
1524;DHT22;755;53.658;10.118;2023-05-10T00:48:35;13.10;99.90
1524;DHT22;755;53.658;10.118;2023-05-10T00:58:38;13.00;99.90
1524;DHT22;755;53.658;10.118;2023-05-10T01:08:41;12.80;99.90
1524;DHT22;755;53.658;10.118;2023-05-10T01:18:44;12.70;99.90
1524;DHT22;755;53.658;10.118;2023-05-10T01:29:16;12.50;1.00
1524;DHT22;755;53.658;10.118;2023-05-10T01:39:25;12.40;1.00
1524;DHT22;755;53.658;10.118;2023-05-10T01:49:32;12.30;1.00
1524;DHT22;755;53.658;10.118;2023-05-10T01:59:39;12.10;1.00
1524;DHT22;755;53.658;10.118;2023-05-10T02:09:44;12.10;1.00
1524;DHT22;755;53.658;10.118;2023-05-10T02:19:49;12.10;1.00
1524;DHT22;755;53.658;10.118;2023-05-10T02:29:57;11.90;1.00
1524;DHT22;755;53.658;10.118;2023-05-10T02:40:02;11.80;1.00
1524;DHT22;755;53.658;10.118;2023-05-10T02:50:07;11.70;1.00
1524;DHT22;755;53.658;10.118;2023-05-10T03:00:12;11.60;99.90
1524;DHT22;755;53.658;10.118;2023-05-10T03:10:14;11.50;99.90
1524;DHT22;755;53.658;10.118;2023-05-10T03:20:25;11.50;99.90
1524;DHT22;755;53.658;10.118;2023-05-10T03:30:28;11.40;99.90
1524;DHT22;755;53.658;10.118;2023-05-10T03:40:32;11.30;99.90
1524;DHT22;755;53.658;10.118;2023-05-10T03:50:34;11.40;99.90
1524;DHT22;755;53.658;10.118;2023-05-10T04:00:37;11.30;99.90
1524;DHT22;755;53.658;10.118;2023-05-10T04:10:44;11.30;99.90
1524;DHT22;755;53.658;10.118;2023-05-10T04:20:47;11.40;99.90
1524;DHT22;755;53.658;10.118;2023-05-10T04:30:49;11.40;1.00
1524;DHT22;755;53.658;10.118;2023-05-10T04:40:52;11.50;99.90
1524;DHT22;755;53.658;10.118;2023-05-10T04:50:54;11.70;99.90
1524;DHT22;755;53.658;10.118;2023-05-10T05:01:05;11.90;99.90
1524;DHT22;755;53.658;10.118;2023-05-10T05:11:07;13.20;1.00
1524;DHT22;755;53.658;10.118;2023-05-10T05:21:17;12.90;1.00
1524;DHT22;755;53.658;10.118;2023-05-10T05:31:19;13.60;1.00
1524;DHT22;755;53.658;10.118;2023-05-10T05:41:23;13.60;1.00
1524;DHT22;755;53.658;10.118;2023-05-10T05:51:25;13.70;1.00
1524;DHT22;755;53.658;10.118;2023-05-10T06:01:28;13.60;1.00
1524;DHT22;755;53.658;10.118;2023-05-10T06:11:30;14.20;1.00
1524;DHT22;755;53.658;10.118;2023-05-10T06:21:34;14.70;99.90
1524;DHT22;755;53.658;10.118;2023-05-10T06:31:36;14.90;99.90
1524;DHT22;755;53.658;10.118;2023-05-10T06:41:39;14.70;99.90
1524;DHT22;755;53.658;10.118;2023-05-10T06:51:41;14.80;99.90
1524;DHT22;755;53.658;10.118;2023-05-10T07:01:44;15.20;99.90
1524;DHT22;755;53.658;10.118;2023-05-10T07:11:46;15.60;99.90
1524;DHT22;755;53.658;10.118;2023-05-10T07:21:49;15.20;99.90
1524;DHT22;755;53.658;10.118;2023-05-10T07:31:51;15.10;99.90
1524;DHT22;755;53.658;10.118;2023-05-10T07:41:55;15.40;99.90
1524;DHT22;755;53.658;10.118;2023-05-10T07:51:57;15.40;1.00
1524;DHT22;755;53.658;10.118;2023-05-10T08:02:00;15.60;99.90
1524;DHT22;755;53.658;10.118;2023-05-10T08:12:02;15.90;99.90
1524;DHT22;755;53.658;10.118;2023-05-10T08:22:06;16.00;99.90
1524;DHT22;755;53.658;10.118;2023-05-10T08:32:08;16.20;99.90
1524;DHT22;755;53.658;10.118;2023-05-10T08:42:12;16.30;99.90
1524;DHT22;755;53.658;10.118;2023-05-10T08:52:17;16.50;1.00
1524;DHT22;755;53.658;10.118;2023-05-10T09:02:21;16.80;99.90
1524;DHT22;755;53.658;10.118;2023-05-10T09:12:24;16.90;99.90
1524;DHT22;755;53.658;10.118;2023-05-10T09:22:28;17.20;99.90
1524;DHT22;755;53.658;10.118;2023-05-10T09:32:37;17.30;1.00
1524;DHT22;755;53.658;10.118;2023-05-10T09:42:41;16.90;99.90
1524;DHT22;755;53.658;10.118;2023-05-10T09:52:48;17.00;99.90
1524;DHT22;755;53.658;10.118;2023-05-10T10:02:55;16.70;1.00
1524;DHT22;755;53.658;10.118;2023-05-10T10:12:57;16.90;99.90
1524;DHT22;755;53.658;10.118;2023-05-10T10:23:01;16.80;1.00
1524;DHT22;755;53.658;10.118;2023-05-10T10:33:27;16.10;1.00
1524;DHT22;755;53.658;10.118;2023-05-10T10:43:33;15.50;1.00
1524;DHT22;755;53.658;10.118;2023-05-10T10:53:37;14.80;1.00
1524;DHT22;755;53.658;10.118;2023-05-10T11:03:56;14.60;99.90
1524;DHT22;755;53.658;10.118;2023-05-10T11:14:04;14.40;99.90
1524;DHT22;755;53.658;10.118;2023-05-10T11:24:14;14.20;99.90
1524;DHT22;755;53.658;10.118;2023-05-10T11:34:26;14.40;99.90
1524;DHT22;755;53.658;10.118;2023-05-10T11:44:30;14.70;99.90
1524;DHT22;755;53.658;10.118;2023-05-10T11:54:33;14.70;99.90
1524;DHT22;755;53.658;10.118;2023-05-10T12:04:37;14.90;99.90
1524;DHT22;755;53.658;10.118;2023-05-10T12:14:39;15.00;99.90
1524;DHT22;755;53.658;10.118;2023-05-10T12:24:42;14.90;99.90
1524;DHT22;755;53.658;10.118;2023-05-10T12:34:47;15.40;99.90
1524;DHT22;755;53.658;10.118;2023-05-10T12:44:55;15.20;99.90
1524;DHT22;755;53.658;10.118;2023-05-10T12:54:56;14.80;99.90
1524;DHT22;755;53.658;10.118;2023-05-10T13:05:00;15.00;99.90
1524;DHT22;755;53.658;10.118;2023-05-10T13:15:02;15.30;99.90
1524;DHT22;755;53.658;10.118;2023-05-10T13:25:06;15.50;99.90
1524;DHT22;755;53.658;10.118;2023-05-10T13:35:08;15.90;99.90
1524;DHT22;755;53.658;10.118;2023-05-10T13:45:12;15.90;99.90
1524;DHT22;755;53.658;10.118;2023-05-10T13:55:13;16.10;99.90
1524;DHT22;755;53.658;10.118;2023-05-10T14:05:17;16.30;99.90
1524;DHT22;755;53.658;10.118;2023-05-10T14:15:19;16.20;99.90
1524;DHT22;755;53.658;10.118;2023-05-10T14:25:23;16.70;99.90
1524;DHT22;755;53.658;10.118;2023-05-10T14:35:25;16.70;99.90
1524;DHT22;755;53.658;10.118;2023-05-10T14:45:28;16.20;99.90
1524;DHT22;755;53.658;10.118;2023-05-10T14:55:30;16.30;99.90
1524;DHT22;755;53.658;10.118;2023-05-10T15:05:34;16.40;60.70
1524;DHT22;755;53.658;10.118;2023-05-10T15:15:37;16.50;1.00
1524;DHT22;755;53.658;10.118;2023-05-10T15:25:41;16.40;28.70
1524;DHT22;755;53.658;10.118;2023-05-10T15:35:43;16.50;1.00
1524;DHT22;755;53.658;10.118;2023-05-10T15:45:46;16.90;99.90
1524;DHT22;755;53.658;10.118;2023-05-10T15:55:48;16.90;1.00
1524;DHT22;755;53.658;10.118;2023-05-10T16:05:52;16.80;99.90
1524;DHT22;755;53.658;10.118;2023-05-10T16:15:55;16.70;99.90
1524;DHT22;755;53.658;10.118;2023-05-10T16:25:59;16.70;1.00
1524;DHT22;755;53.658;10.118;2023-05-10T16:36:03;16.50;1.00
1524;DHT22;755;53.658;10.118;2023-05-10T16:46:11;16.30;29.40
1524;DHT22;755;53.658;10.118;2023-05-10T16:56:13;16.10;99.90
1524;DHT22;755;53.658;10.118;2023-05-10T17:17:40;14.90;99.90
1524;DHT22;755;53.658;10.118;2023-05-10T17:28:13;15.00;99.90
1524;DHT22;755;53.658;10.118;2023-05-10T17:38:19;15.10;99.90
1524;DHT22;755;53.658;10.118;2023-05-10T17:48:22;15.00;99.90
1524;DHT22;755;53.658;10.118;2023-05-10T17:58:26;15.00;99.90
1524;DHT22;755;53.658;10.118;2023-05-10T18:08:33;14.90;99.90
1524;DHT22;755;53.658;10.118;2023-05-10T18:18:37;15.10;99.90
1524;DHT22;755;53.658;10.118;2023-05-10T18:28:40;15.20;99.90
1524;DHT22;755;53.658;10.118;2023-05-10T18:38:48;14.50;99.90
1524;DHT22;755;53.658;10.118;2023-05-10T18:48:57;14.00;99.90
1524;DHT22;755;53.658;10.118;2023-05-10T18:59:02;13.90;99.90
1524;DHT22;755;53.658;10.118;2023-05-10T19:09:09;13.80;99.90
1524;DHT22;755;53.658;10.118;2023-05-10T19:19:31;13.70;99.90
1524;DHT22;755;53.658;10.118;2023-05-10T19:29:52;13.50;99.90
1524;DHT22;755;53.658;10.118;2023-05-10T19:39:55;13.20;99.90
1524;DHT22;755;53.658;10.118;2023-05-10T19:49:57;13.20;99.90
1524;DHT22;755;53.658;10.118;2023-05-10T20:00:01;13.00;99.90
1524;DHT22;755;53.658;10.118;2023-05-10T20:10:04;13.10;99.90
1524;DHT22;755;53.658;10.118;2023-05-10T20:20:09;13.30;99.90
1524;DHT22;755;53.658;10.118;2023-05-10T20:30:11;13.30;99.90
1524;DHT22;755;53.658;10.118;2023-05-10T20:40:14;13.30;99.90
1524;DHT22;755;53.658;10.118;2023-05-10T20:50:16;13.30;99.90
1524;DHT22;755;53.658;10.118;2023-05-10T21:00:20;13.30;99.90
1524;DHT22;755;53.658;10.118;2023-05-10T21:10:22;13.20;99.90
1524;DHT22;755;53.658;10.118;2023-05-10T21:20:26;13.20;99.90
1524;DHT22;755;53.658;10.118;2023-05-10T21:30:29;13.10;99.90
1524;DHT22;755;53.658;10.118;2023-05-10T21:40:32;13.00;99.90
1524;DHT22;755;53.658;10.118;2023-05-10T21:50:34;12.90;99.90
1524;DHT22;755;53.658;10.118;2023-05-10T22:00:38;12.70;99.90
1524;DHT22;755;53.658;10.118;2023-05-10T22:10:40;12.70;99.90
1524;DHT22;755;53.658;10.118;2023-05-10T22:20:45;12.80;99.90
1524;DHT22;755;53.658;10.118;2023-05-10T22:30:47;12.80;99.90
1524;DHT22;755;53.658;10.118;2023-05-10T22:40:50;12.60;99.90
1524;DHT22;755;53.658;10.118;2023-05-10T22:50:52;12.60;99.90
1524;DHT22;755;53.658;10.118;2023-05-10T23:00:56;12.50;99.90
1524;DHT22;755;53.658;10.118;2023-05-10T23:10:58;12.50;99.90
1524;DHT22;755;53.658;10.118;2023-05-10T23:21:01;12.50;99.90
1524;DHT22;755;53.658;10.118;2023-05-10T23:31:03;12.50;99.90
1524;DHT22;755;53.658;10.118;2023-05-10T23:41:07;12.50;99.90
1524;DHT22;755;53.658;10.118;2023-05-10T23:51:09;12.40;99.90
